sensor_id;sensor_type;location;lat;lon;timestamp;temperature;humidity
62259;DHT22;48241;48.824;10.102;2023-02-24T00:01:49;11.50;95.10
62259;DHT22;48241;48.824;10.102;2023-02-24T00:04:18;11.10;95.80
62259;DHT22;48241;48.824;10.102;2023-02-24T00:06:45;11.10;95.90
62259;DHT22;48241;48.824;10.102;2023-02-24T00:09:16;11.20;96.00
62259;DHT22;48241;48.824;10.102;2023-02-24T00:11:46;11.30;96.20
62259;DHT22;48241;48.824;10.102;2023-02-24T00:14:14;11.30;96.50
62259;DHT22;48241;48.824;10.102;2023-02-24T00:16:43;11.40;96.40
62259;DHT22;48241;48.824;10.102;2023-02-24T00:19:15;11.30;96.40
62259;DHT22;48241;48.824;10.102;2023-02-24T00:21:41;11.20;96.40
62259;DHT22;48241;48.824;10.102;2023-02-24T00:24:07;11.40;96.20
62259;DHT22;48241;48.824;10.102;2023-02-24T00:26:33;11.10;96.70
62259;DHT22;48241;48.824;10.102;2023-02-24T00:28:59;11.00;96.80
62259;DHT22;48241;48.824;10.102;2023-02-24T00:31:28;11.00;97.00
62259;DHT22;48241;48.824;10.102;2023-02-24T00:33:58;11.00;97.20
62259;DHT22;48241;48.824;10.102;2023-02-24T00:36:25;11.00;97.20
62259;DHT22;48241;48.824;10.102;2023-02-24T00:38:56;10.90;97.10
62259;DHT22;48241;48.824;10.102;2023-02-24T00:41:28;10.90;97.00
62259;DHT22;48241;48.824;10.102;2023-02-24T00:43:56;10.90;96.80
62259;DHT22;48241;48.824;10.102;2023-02-24T00:46:24;10.70;96.90
62259;DHT22;48241;48.824;10.102;2023-02-24T00:48:52;10.60;97.50
62259;DHT22;48241;48.824;10.102;2023-02-24T00:51:23;10.80;97.30
62259;DHT22;48241;48.824;10.102;2023-02-24T00:53:54;10.80;97.30
62259;DHT22;48241;48.824;10.102;2023-02-24T00:56:21;11.00;96.80
62259;DHT22;48241;48.824;10.102;2023-02-24T00:58:47;10.90;96.70
62259;DHT22;48241;48.824;10.102;2023-02-24T01:01:15;10.50;97.60
62259;DHT22;48241;48.824;10.102;2023-02-24T01:03:45;10.60;97.80
62259;DHT22;48241;48.824;10.102;2023-02-24T01:06:11;10.60;97.80
62259;DHT22;48241;48.824;10.102;2023-02-24T01:08:38;10.70;97.70
62259;DHT22;48241;48.824;10.102;2023-02-24T01:11:07;11.00;97.00
62259;DHT22;48241;48.824;10.102;2023-02-24T01:13:51;10.90;96.90
62259;DHT22;48241;48.824;10.102;2023-02-24T01:16:17;11.10;96.60
62259;DHT22;48241;48.824;10.102;2023-02-24T01:18:46;11.20;96.40
62259;DHT22;48241;48.824;10.102;2023-02-24T01:21:13;11.10;96.70
62259;DHT22;48241;48.824;10.102;2023-02-24T01:23:41;11.10;96.60
62259;DHT22;48241;48.824;10.102;2023-02-24T01:26:07;11.20;96.80
62259;DHT22;48241;48.824;10.102;2023-02-24T01:28:33;11.30;96.50
62259;DHT22;48241;48.824;10.102;2023-02-24T01:31:00;11.30;96.70
62259;DHT22;48241;48.824;10.102;2023-02-24T01:33:27;11.50;96.50
62259;DHT22;48241;48.824;10.102;2023-02-24T01:35:54;11.50;96.10
62259;DHT22;48241;48.824;10.102;2023-02-24T01:38:20;11.40;96.10
62259;DHT22;48241;48.824;10.102;2023-02-24T01:40:57;11.50;96.20
62259;DHT22;48241;48.824;10.102;2023-02-24T01:43:24;11.50;96.00
62259;DHT22;48241;48.824;10.102;2023-02-24T01:45:52;11.60;95.80
62259;DHT22;48241;48.824;10.102;2023-02-24T01:48:17;11.50;96.00
62259;DHT22;48241;48.824;10.102;2023-02-24T01:50:44;11.50;96.00
62259;DHT22;48241;48.824;10.102;2023-02-24T01:53:10;11.50;96.10
62259;DHT22;48241;48.824;10.102;2023-02-24T01:55:40;11.60;95.80
62259;DHT22;48241;48.824;10.102;2023-02-24T01:58:18;11.60;95.60
62259;DHT22;48241;48.824;10.102;2023-02-24T02:00:44;11.70;95.90
62259;DHT22;48241;48.824;10.102;2023-02-24T02:05:49;11.30;96.50
62259;DHT22;48241;48.824;10.102;2023-02-24T02:08:17;11.40;96.40
62259;DHT22;48241;48.824;10.102;2023-02-24T02:10:44;11.30;96.60
62259;DHT22;48241;48.824;10.102;2023-02-24T02:13:12;11.40;96.60
62259;DHT22;48241;48.824;10.102;2023-02-24T02:15:46;11.30;96.70
62259;DHT22;48241;48.824;10.102;2023-02-24T02:18:28;11.40;97.00
62259;DHT22;48241;48.824;10.102;2023-02-24T02:21:04;11.70;96.60
62259;DHT22;48241;48.824;10.102;2023-02-24T02:23:54;11.70;96.50
62259;DHT22;48241;48.824;10.102;2023-02-24T02:29:45;11.90;96.10
62259;DHT22;48241;48.824;10.102;2023-02-24T02:38:13;11.70;95.80
62259;DHT22;48241;48.824;10.102;2023-02-24T02:41:07;11.70;95.50
62259;DHT22;48241;48.824;10.102;2023-02-24T02:44:09;11.60;95.90
62259;DHT22;48241;48.824;10.102;2023-02-24T02:46:47;11.60;96.10
62259;DHT22;48241;48.824;10.102;2023-02-24T02:49:20;11.60;96.00
62259;DHT22;48241;48.824;10.102;2023-02-24T02:51:52;11.60;96.00
62259;DHT22;48241;48.824;10.102;2023-02-24T02:54:30;11.70;95.70
62259;DHT22;48241;48.824;10.102;2023-02-24T02:57:06;11.60;95.80
62259;DHT22;48241;48.824;10.102;2023-02-24T02:59:36;11.60;96.00
62259;DHT22;48241;48.824;10.102;2023-02-24T03:02:05;11.30;96.40
62259;DHT22;48241;48.824;10.102;2023-02-24T03:04:48;11.40;96.60
62259;DHT22;48241;48.824;10.102;2023-02-24T03:07:16;11.40;96.50
62259;DHT22;48241;48.824;10.102;2023-02-24T03:09:54;11.60;96.40
62259;DHT22;48241;48.824;10.102;2023-02-24T03:12:22;11.60;96.30
62259;DHT22;48241;48.824;10.102;2023-02-24T03:14:52;11.60;96.20
62259;DHT22;48241;48.824;10.102;2023-02-24T03:17:24;11.60;95.90
62259;DHT22;48241;48.824;10.102;2023-02-24T03:19:57;11.80;95.90
62259;DHT22;48241;48.824;10.102;2023-02-24T03:22:33;11.60;96.10
62259;DHT22;48241;48.824;10.102;2023-02-24T03:25:02;11.60;96.10
62259;DHT22;48241;48.824;10.102;2023-02-24T03:27:36;11.60;96.10
62259;DHT22;48241;48.824;10.102;2023-02-24T03:30:11;11.60;96.40
62259;DHT22;48241;48.824;10.102;2023-02-24T03:32:51;11.70;96.30
62259;DHT22;48241;48.824;10.102;2023-02-24T03:35:25;11.80;95.80
62259;DHT22;48241;48.824;10.102;2023-02-24T03:37:52;11.80;95.70
62259;DHT22;48241;48.824;10.102;2023-02-24T03:40:20;11.70;96.00
62259;DHT22;48241;48.824;10.102;2023-02-24T03:42:50;11.80;95.80
62259;DHT22;48241;48.824;10.102;2023-02-24T03:45:17;11.60;96.10
62259;DHT22;48241;48.824;10.102;2023-02-24T03:47:47;11.60;96.20
62259;DHT22;48241;48.824;10.102;2023-02-24T03:50:18;11.60;96.30
62259;DHT22;48241;48.824;10.102;2023-02-24T03:55:34;11.70;96.10
62259;DHT22;48241;48.824;10.102;2023-02-24T03:58:16;11.70;96.00
62259;DHT22;48241;48.824;10.102;2023-02-24T04:00:55;11.80;96.00
62259;DHT22;48241;48.824;10.102;2023-02-24T04:09:06;11.70;95.80
62259;DHT22;48241;48.824;10.102;2023-02-24T04:11:49;11.80;95.60
62259;DHT22;48241;48.824;10.102;2023-02-24T04:14:21;11.80;95.60
62259;DHT22;48241;48.824;10.102;2023-02-24T04:16:59;11.90;95.40
62259;DHT22;48241;48.824;10.102;2023-02-24T04:19:30;11.80;95.60
62259;DHT22;48241;48.824;10.102;2023-02-24T04:21:56;11.80;95.60
62259;DHT22;48241;48.824;10.102;2023-02-24T04:24:27;11.80;95.70
62259;DHT22;48241;48.824;10.102;2023-02-24T04:26:56;11.90;95.60
62259;DHT22;48241;48.824;10.102;2023-02-24T04:29:25;11.80;95.60
62259;DHT22;48241;48.824;10.102;2023-02-24T04:31:56;11.90;95.40
62259;DHT22;48241;48.824;10.102;2023-02-24T04:34:23;11.80;95.60
62259;DHT22;48241;48.824;10.102;2023-02-24T04:36:49;11.90;95.80
62259;DHT22;48241;48.824;10.102;2023-02-24T04:39:21;11.80;95.60
62259;DHT22;48241;48.824;10.102;2023-02-24T04:41:48;11.80;95.60
62259;DHT22;48241;48.824;10.102;2023-02-24T04:44:15;11.80;95.50
62259;DHT22;48241;48.824;10.102;2023-02-24T04:46:42;11.70;95.60
62259;DHT22;48241;48.824;10.102;2023-02-24T04:49:08;11.80;95.80
62259;DHT22;48241;48.824;10.102;2023-02-24T04:51:35;11.90;95.60
62259;DHT22;48241;48.824;10.102;2023-02-24T04:54:01;11.90;95.60
62259;DHT22;48241;48.824;10.102;2023-02-24T04:56:28;11.90;95.30
62259;DHT22;48241;48.824;10.102;2023-02-24T04:58:54;11.80;95.20
62259;DHT22;48241;48.824;10.102;2023-02-24T05:01:20;11.90;95.30
62259;DHT22;48241;48.824;10.102;2023-02-24T05:03:45;11.80;95.20
62259;DHT22;48241;48.824;10.102;2023-02-24T05:06:16;11.80;95.20
62259;DHT22;48241;48.824;10.102;2023-02-24T05:08:42;11.80;95.20
62259;DHT22;48241;48.824;10.102;2023-02-24T05:11:12;11.50;95.30
62259;DHT22;48241;48.824;10.102;2023-02-24T05:13:41;11.40;96.00
62259;DHT22;48241;48.824;10.102;2023-02-24T05:16:10;11.40;96.10
62259;DHT22;48241;48.824;10.102;2023-02-24T05:18:37;11.40;96.10
62259;DHT22;48241;48.824;10.102;2023-02-24T05:21:06;11.60;95.40
62259;DHT22;48241;48.824;10.102;2023-02-24T05:23:51;11.70;95.00
62259;DHT22;48241;48.824;10.102;2023-02-24T05:26:19;11.50;95.40
62259;DHT22;48241;48.824;10.102;2023-02-24T05:28:47;11.60;95.30
62259;DHT22;48241;48.824;10.102;2023-02-24T05:31:19;11.70;94.80
62259;DHT22;48241;48.824;10.102;2023-02-24T05:33:49;11.50;95.20
62259;DHT22;48241;48.824;10.102;2023-02-24T05:36:19;11.20;95.80
62259;DHT22;48241;48.824;10.102;2023-02-24T05:38:51;11.40;95.70
62259;DHT22;48241;48.824;10.102;2023-02-24T05:41:23;11.50;95.20
62259;DHT22;48241;48.824;10.102;2023-02-24T05:43:57;11.40;95.20
62259;DHT22;48241;48.824;10.102;2023-02-24T05:46:27;11.40;95.30
62259;DHT22;48241;48.824;10.102;2023-02-24T05:48:54;11.40;95.00
62259;DHT22;48241;48.824;10.102;2023-02-24T05:51:23;11.40;95.10
62259;DHT22;48241;48.824;10.102;2023-02-24T05:53:51;11.30;95.10
62259;DHT22;48241;48.824;10.102;2023-02-24T05:56:23;11.30;95.00
62259;DHT22;48241;48.824;10.102;2023-02-24T05:58:49;11.30;94.90
62259;DHT22;48241;48.824;10.102;2023-02-24T06:01:26;11.20;95.10
62259;DHT22;48241;48.824;10.102;2023-02-24T06:03:55;11.20;94.70
62259;DHT22;48241;48.824;10.102;2023-02-24T06:06:20;11.00;95.50
62259;DHT22;48241;48.824;10.102;2023-02-24T06:08:47;11.10;95.20
62259;DHT22;48241;48.824;10.102;2023-02-24T06:11:17;11.00;95.40
62259;DHT22;48241;48.824;10.102;2023-02-24T06:13:44;11.10;95.30
62259;DHT22;48241;48.824;10.102;2023-02-24T06:16:13;10.80;95.60
62259;DHT22;48241;48.824;10.102;2023-02-24T06:18:40;11.00;95.60
62259;DHT22;48241;48.824;10.102;2023-02-24T06:21:06;11.10;95.40
62259;DHT22;48241;48.824;10.102;2023-02-24T06:23:32;11.00;95.60
62259;DHT22;48241;48.824;10.102;2023-02-24T06:26:01;11.10;95.60
62259;DHT22;48241;48.824;10.102;2023-02-24T06:28:28;11.30;95.50
62259;DHT22;48241;48.824;10.102;2023-02-24T06:30:54;11.20;95.10
62259;DHT22;48241;48.824;10.102;2023-02-24T06:33:21;11.30;95.20
62259;DHT22;48241;48.824;10.102;2023-02-24T06:35:47;11.30;95.20
62259;DHT22;48241;48.824;10.102;2023-02-24T06:38:12;11.10;95.80
62259;DHT22;48241;48.824;10.102;2023-02-24T06:40:39;11.20;96.00
62259;DHT22;48241;48.824;10.102;2023-02-24T06:43:08;11.30;95.80
62259;DHT22;48241;48.824;10.102;2023-02-24T06:45:34;11.30;95.60
62259;DHT22;48241;48.824;10.102;2023-02-24T06:48:00;11.20;96.10
62259;DHT22;48241;48.824;10.102;2023-02-24T06:50:25;11.40;95.70
62259;DHT22;48241;48.824;10.102;2023-02-24T06:52:54;11.50;95.60
62259;DHT22;48241;48.824;10.102;2023-02-24T06:55:25;11.50;95.60
62259;DHT22;48241;48.824;10.102;2023-02-24T06:57:56;11.50;95.70
62259;DHT22;48241;48.824;10.102;2023-02-24T07:00:24;11.60;95.60
62259;DHT22;48241;48.824;10.102;2023-02-24T07:03:14;11.50;95.80
62259;DHT22;48241;48.824;10.102;2023-02-24T07:05:49;11.60;95.60
62259;DHT22;48241;48.824;10.102;2023-02-24T07:08:17;11.60;95.30
62259;DHT22;48241;48.824;10.102;2023-02-24T07:10:43;11.60;95.40
62259;DHT22;48241;48.824;10.102;2023-02-24T07:13:08;11.70;95.20
62259;DHT22;48241;48.824;10.102;2023-02-24T07:15:35;11.80;95.20
62259;DHT22;48241;48.824;10.102;2023-02-24T07:18:02;11.80;95.20
62259;DHT22;48241;48.824;10.102;2023-02-24T07:20:28;11.80;95.10
62259;DHT22;48241;48.824;10.102;2023-02-24T07:22:54;12.00;94.90
62259;DHT22;48241;48.824;10.102;2023-02-24T07:25:20;11.90;94.80
62259;DHT22;48241;48.824;10.102;2023-02-24T07:27:58;11.90;94.70
62259;DHT22;48241;48.824;10.102;2023-02-24T07:30:27;12.00;94.90
62259;DHT22;48241;48.824;10.102;2023-02-24T07:32:52;11.90;94.90
62259;DHT22;48241;48.824;10.102;2023-02-24T07:35:20;11.90;94.80
62259;DHT22;48241;48.824;10.102;2023-02-24T07:37:46;12.10;94.70
62259;DHT22;48241;48.824;10.102;2023-02-24T07:40:14;12.20;94.60
62259;DHT22;48241;48.824;10.102;2023-02-24T07:42:42;12.10;94.90
62259;DHT22;48241;48.824;10.102;2023-02-24T07:45:08;12.10;94.70
62259;DHT22;48241;48.824;10.102;2023-02-24T07:47:35;12.20;94.30
62259;DHT22;48241;48.824;10.102;2023-02-24T07:50:01;12.30;94.10
62259;DHT22;48241;48.824;10.102;2023-02-24T07:52:34;12.40;94.00
62259;DHT22;48241;48.824;10.102;2023-02-24T07:55:01;12.40;94.00
62259;DHT22;48241;48.824;10.102;2023-02-24T07:57:27;12.30;94.10
62259;DHT22;48241;48.824;10.102;2023-02-24T07:59:53;12.20;94.30
62259;DHT22;48241;48.824;10.102;2023-02-24T08:02:19;12.30;94.50
62259;DHT22;48241;48.824;10.102;2023-02-24T08:04:44;12.50;94.20
62259;DHT22;48241;48.824;10.102;2023-02-24T08:07:15;12.40;94.40
62259;DHT22;48241;48.824;10.102;2023-02-24T08:09:41;12.40;94.10
62259;DHT22;48241;48.824;10.102;2023-02-24T08:12:17;12.30;94.50
62259;DHT22;48241;48.824;10.102;2023-02-24T08:14:47;12.30;94.70
62259;DHT22;48241;48.824;10.102;2023-02-24T08:17:21;12.50;94.40
62259;DHT22;48241;48.824;10.102;2023-02-24T08:19:49;12.60;94.10
62259;DHT22;48241;48.824;10.102;2023-02-24T08:22:15;12.70;93.60
62259;DHT22;48241;48.824;10.102;2023-02-24T08:24:51;12.60;94.00
62259;DHT22;48241;48.824;10.102;2023-02-24T08:27:18;12.60;94.00
62259;DHT22;48241;48.824;10.102;2023-02-24T08:29:48;12.70;93.80
62259;DHT22;48241;48.824;10.102;2023-02-24T08:32:28;12.40;94.10
62259;DHT22;48241;48.824;10.102;2023-02-24T08:35:06;12.50;93.80
62259;DHT22;48241;48.824;10.102;2023-02-24T08:37:40;12.60;93.70
62259;DHT22;48241;48.824;10.102;2023-02-24T08:40:16;12.60;93.50
62259;DHT22;48241;48.824;10.102;2023-02-24T08:43:09;12.70;93.60
62259;DHT22;48241;48.824;10.102;2023-02-24T08:48:20;12.80;93.50
62259;DHT22;48241;48.824;10.102;2023-02-24T08:51:04;12.80;93.30
62259;DHT22;48241;48.824;10.102;2023-02-24T08:53:30;12.80;92.90
62259;DHT22;48241;48.824;10.102;2023-02-24T08:55:58;12.80;92.80
62259;DHT22;48241;48.824;10.102;2023-02-24T08:58:24;12.80;93.00
62259;DHT22;48241;48.824;10.102;2023-02-24T09:00:57;12.80;93.10
62259;DHT22;48241;48.824;10.102;2023-02-24T09:03:27;12.90;93.10
62259;DHT22;48241;48.824;10.102;2023-02-24T09:06:07;12.90;93.00
62259;DHT22;48241;48.824;10.102;2023-02-24T09:08:38;13.00;93.10
62259;DHT22;48241;48.824;10.102;2023-02-24T09:11:07;13.20;92.70
62259;DHT22;48241;48.824;10.102;2023-02-24T09:13:37;13.30;92.50
62259;DHT22;48241;48.824;10.102;2023-02-24T09:16:08;13.30;92.30
62259;DHT22;48241;48.824;10.102;2023-02-24T09:18:41;13.60;91.80
62259;DHT22;48241;48.824;10.102;2023-02-24T09:21:12;13.70;91.30
62259;DHT22;48241;48.824;10.102;2023-02-24T09:24:00;13.70;91.40
62259;DHT22;48241;48.824;10.102;2023-02-24T09:26:32;13.80;91.60
62259;DHT22;48241;48.824;10.102;2023-02-24T09:29:11;14.20;91.00
62259;DHT22;48241;48.824;10.102;2023-02-24T09:31:56;14.10;90.70
62259;DHT22;48241;48.824;10.102;2023-02-24T09:34:37;13.80;90.90
62259;DHT22;48241;48.824;10.102;2023-02-24T09:37:09;14.00;90.90
62259;DHT22;48241;48.824;10.102;2023-02-24T09:39:50;14.00;90.50
62259;DHT22;48241;48.824;10.102;2023-02-24T09:42:28;14.10;90.50
62259;DHT22;48241;48.824;10.102;2023-02-24T09:45:00;14.00;90.50
62259;DHT22;48241;48.824;10.102;2023-02-24T09:47:46;14.00;91.20
62259;DHT22;48241;48.824;10.102;2023-02-24T09:52:57;14.20;90.90
62259;DHT22;48241;48.824;10.102;2023-02-24T09:55:47;14.30;90.30
62259;DHT22;48241;48.824;10.102;2023-02-24T09:59:04;14.30;90.30
62259;DHT22;48241;48.824;10.102;2023-02-24T10:02:08;14.40;89.70
62259;DHT22;48241;48.824;10.102;2023-02-24T10:04:53;14.30;89.80
62259;DHT22;48241;48.824;10.102;2023-02-24T10:07:30;14.30;90.10
62259;DHT22;48241;48.824;10.102;2023-02-24T10:10:10;14.50;88.30
62259;DHT22;48241;48.824;10.102;2023-02-24T10:13:10;14.50;88.60
62259;DHT22;48241;48.824;10.102;2023-02-24T10:15:43;14.40;88.60
62259;DHT22;48241;48.824;10.102;2023-02-24T10:21:17;14.20;89.80
62259;DHT22;48241;48.824;10.102;2023-02-24T10:24:11;14.00;90.10
62259;DHT22;48241;48.824;10.102;2023-02-24T10:26:42;13.90;90.10
62259;DHT22;48241;48.824;10.102;2023-02-24T10:32:02;14.00;89.70
62259;DHT22;48241;48.824;10.102;2023-02-24T10:34:31;14.00;89.90
62259;DHT22;48241;48.824;10.102;2023-02-24T10:37:02;14.00;90.20
62259;DHT22;48241;48.824;10.102;2023-02-24T10:39:34;13.90;90.40
62259;DHT22;48241;48.824;10.102;2023-02-24T10:42:03;14.10;90.30
62259;DHT22;48241;48.824;10.102;2023-02-24T10:44:44;14.80;90.10
62259;DHT22;48241;48.824;10.102;2023-02-24T10:47:18;15.30;87.10
62259;DHT22;48241;48.824;10.102;2023-02-24T10:49:48;15.20;84.80
62259;DHT22;48241;48.824;10.102;2023-02-24T10:52:36;15.30;85.00
62259;DHT22;48241;48.824;10.102;2023-02-24T10:55:39;15.00;84.00
62259;DHT22;48241;48.824;10.102;2023-02-24T10:58:33;14.00;86.90
62259;DHT22;48241;48.824;10.102;2023-02-24T11:01:10;13.80;88.10
62259;DHT22;48241;48.824;10.102;2023-02-24T11:03:54;13.60;89.30
62259;DHT22;48241;48.824;10.102;2023-02-24T11:06:31;12.80;90.60
62259;DHT22;48241;48.824;10.102;2023-02-24T11:08:57;12.30;92.20
62259;DHT22;48241;48.824;10.102;2023-02-24T11:11:41;12.40;92.80
62259;DHT22;48241;48.824;10.102;2023-02-24T11:14:25;12.40;92.90
62259;DHT22;48241;48.824;10.102;2023-02-24T11:17:19;12.30;92.80
62259;DHT22;48241;48.824;10.102;2023-02-24T11:19:59;12.20;93.50
62259;DHT22;48241;48.824;10.102;2023-02-24T11:22:34;12.30;93.00
62259;DHT22;48241;48.824;10.102;2023-02-24T11:25:20;12.40;92.60
62259;DHT22;48241;48.824;10.102;2023-02-24T11:27:47;12.40;93.20
62259;DHT22;48241;48.824;10.102;2023-02-24T11:31:35;12.40;92.70
62259;DHT22;48241;48.824;10.102;2023-02-24T11:33:59;12.20;92.70
62259;DHT22;48241;48.824;10.102;2023-02-24T11:36:37;12.30;92.20
62259;DHT22;48241;48.824;10.102;2023-02-24T11:41:39;12.20;92.50
62259;DHT22;48241;48.824;10.102;2023-02-24T11:44:28;12.20;92.20
62259;DHT22;48241;48.824;10.102;2023-02-24T11:47:00;12.20;92.40
62259;DHT22;48241;48.824;10.102;2023-02-24T11:49:41;12.10;92.70
62259;DHT22;48241;48.824;10.102;2023-02-24T11:52:18;11.80;93.30
62259;DHT22;48241;48.824;10.102;2023-02-24T11:54:52;11.60;93.80
62259;DHT22;48241;48.824;10.102;2023-02-24T11:57:31;11.60;94.30
62259;DHT22;48241;48.824;10.102;2023-02-24T12:00:18;11.90;94.00
62259;DHT22;48241;48.824;10.102;2023-02-24T12:03:04;12.20;93.20
62259;DHT22;48241;48.824;10.102;2023-02-24T12:05:40;12.70;92.60
62259;DHT22;48241;48.824;10.102;2023-02-24T12:10:45;12.40;91.40
62259;DHT22;48241;48.824;10.102;2023-02-24T12:15:58;12.50;91.30
62259;DHT22;48241;48.824;10.102;2023-02-24T12:18:34;12.40;91.10
62259;DHT22;48241;48.824;10.102;2023-02-24T12:21:04;12.50;90.80
62259;DHT22;48241;48.824;10.102;2023-02-24T12:23:44;12.60;90.60
62259;DHT22;48241;48.824;10.102;2023-02-24T12:26:23;12.30;90.90
62259;DHT22;48241;48.824;10.102;2023-02-24T12:29:18;12.10;91.30
62259;DHT22;48241;48.824;10.102;2023-02-24T12:32:07;12.40;91.20
62259;DHT22;48241;48.824;10.102;2023-02-24T12:35:14;12.30;91.20
62259;DHT22;48241;48.824;10.102;2023-02-24T12:51:27;13.10;89.80
62259;DHT22;48241;48.824;10.102;2023-02-24T12:56:40;13.10;89.70
62259;DHT22;48241;48.824;10.102;2023-02-24T12:59:12;13.00;88.90
62259;DHT22;48241;48.824;10.102;2023-02-24T13:01:47;13.00;88.80
62259;DHT22;48241;48.824;10.102;2023-02-24T13:04:39;13.20;88.80
62259;DHT22;48241;48.824;10.102;2023-02-24T13:09:50;13.70;86.10
62259;DHT22;48241;48.824;10.102;2023-02-24T13:12:36;14.20;84.40
62259;DHT22;48241;48.824;10.102;2023-02-24T13:15:06;14.10;83.40
62259;DHT22;48241;48.824;10.102;2023-02-24T13:17:32;14.30;83.10
62259;DHT22;48241;48.824;10.102;2023-02-24T13:20:09;14.70;81.90
62259;DHT22;48241;48.824;10.102;2023-02-24T13:22:40;14.10;81.60
62259;DHT22;48241;48.824;10.102;2023-02-24T13:27:40;13.70;82.60
62259;DHT22;48241;48.824;10.102;2023-02-24T13:30:25;13.60;82.80
62259;DHT22;48241;48.824;10.102;2023-02-24T13:33:05;13.60;83.40
62259;DHT22;48241;48.824;10.102;2023-02-24T13:35:34;13.70;83.10
62259;DHT22;48241;48.824;10.102;2023-02-24T13:41:59;14.00;82.80
62259;DHT22;48241;48.824;10.102;2023-02-24T13:46:24;13.60;84.30
62259;DHT22;48241;48.824;10.102;2023-02-24T13:49:28;13.70;83.70
62259;DHT22;48241;48.824;10.102;2023-02-24T13:57:38;12.90;85.50
62259;DHT22;48241;48.824;10.102;2023-02-24T14:00:13;12.90;86.00
62259;DHT22;48241;48.824;10.102;2023-02-24T14:02:47;12.90;85.80
62259;DHT22;48241;48.824;10.102;2023-02-24T14:05:23;12.90;86.10
62259;DHT22;48241;48.824;10.102;2023-02-24T14:07:50;12.70;87.40
62259;DHT22;48241;48.824;10.102;2023-02-24T14:10:19;12.80;87.10
62259;DHT22;48241;48.824;10.102;2023-02-24T14:12:47;12.80;87.70
62259;DHT22;48241;48.824;10.102;2023-02-24T14:15:24;12.70;87.90
62259;DHT22;48241;48.824;10.102;2023-02-24T14:17:58;13.00;86.00
62259;DHT22;48241;48.824;10.102;2023-02-24T14:20:26;12.80;86.50
62259;DHT22;48241;48.824;10.102;2023-02-24T14:22:57;12.70;86.10
62259;DHT22;48241;48.824;10.102;2023-02-24T14:25:25;12.60;85.70
62259;DHT22;48241;48.824;10.102;2023-02-24T14:27:52;12.50;86.30
62259;DHT22;48241;48.824;10.102;2023-02-24T14:32:47;12.20;87.70
62259;DHT22;48241;48.824;10.102;2023-02-24T14:35:33;12.20;87.80
62259;DHT22;48241;48.824;10.102;2023-02-24T14:37:59;12.10;88.40
62259;DHT22;48241;48.824;10.102;2023-02-24T14:40:25;12.10;87.70
62259;DHT22;48241;48.824;10.102;2023-02-24T14:42:52;12.00;88.00
62259;DHT22;48241;48.824;10.102;2023-02-24T14:45:21;12.00;88.40
62259;DHT22;48241;48.824;10.102;2023-02-24T14:47:47;12.00;87.90
62259;DHT22;48241;48.824;10.102;2023-02-24T14:50:18;12.10;89.10
62259;DHT22;48241;48.824;10.102;2023-02-24T14:52:47;12.10;88.70
62259;DHT22;48241;48.824;10.102;2023-02-24T14:55:34;12.10;88.40
62259;DHT22;48241;48.824;10.102;2023-02-24T15:00:37;12.30;89.10
62259;DHT22;48241;48.824;10.102;2023-02-24T15:03:17;12.50;88.40
62259;DHT22;48241;48.824;10.102;2023-02-24T15:05:49;12.70;87.60
62259;DHT22;48241;48.824;10.102;2023-02-24T15:08:38;12.70;86.70
62259;DHT22;48241;48.824;10.102;2023-02-24T15:13:52;12.60;87.50
62259;DHT22;48241;48.824;10.102;2023-02-24T15:19:00;12.50;87.20
62259;DHT22;48241;48.824;10.102;2023-02-24T15:21:29;12.50;87.30
62259;DHT22;48241;48.824;10.102;2023-02-24T15:24:29;12.30;87.80
62259;DHT22;48241;48.824;10.102;2023-02-24T15:27:01;12.40;88.40
62259;DHT22;48241;48.824;10.102;2023-02-24T15:29:29;12.30;87.70
62259;DHT22;48241;48.824;10.102;2023-02-24T15:31:57;12.10;88.20
62259;DHT22;48241;48.824;10.102;2023-02-24T15:34:27;12.20;88.60
62259;DHT22;48241;48.824;10.102;2023-02-24T15:36:56;12.00;88.60
62259;DHT22;48241;48.824;10.102;2023-02-24T15:39:26;11.90;89.20
62259;DHT22;48241;48.824;10.102;2023-02-24T15:42:12;11.80;90.10
62259;DHT22;48241;48.824;10.102;2023-02-24T15:47:41;11.80;90.30
62259;DHT22;48241;48.824;10.102;2023-02-24T15:50:08;11.60;90.70
62259;DHT22;48241;48.824;10.102;2023-02-24T15:52:34;11.60;91.40
62259;DHT22;48241;48.824;10.102;2023-02-24T15:55:00;11.50;91.30
62259;DHT22;48241;48.824;10.102;2023-02-24T15:57:31;11.40;91.90
62259;DHT22;48241;48.824;10.102;2023-02-24T15:59:58;11.30;92.20
62259;DHT22;48241;48.824;10.102;2023-02-24T16:02:24;11.20;92.70
62259;DHT22;48241;48.824;10.102;2023-02-24T16:04:50;11.10;93.00
62259;DHT22;48241;48.824;10.102;2023-02-24T16:07:29;11.30;93.10
62259;DHT22;48241;48.824;10.102;2023-02-24T16:09:58;11.20;93.20
62259;DHT22;48241;48.824;10.102;2023-02-24T16:12:31;11.20;93.60
62259;DHT22;48241;48.824;10.102;2023-02-24T16:14:58;11.10;93.70
62259;DHT22;48241;48.824;10.102;2023-02-24T16:19:56;11.00;94.40
62259;DHT22;48241;48.824;10.102;2023-02-24T16:22:22;10.80;94.80
62259;DHT22;48241;48.824;10.102;2023-02-24T16:24:48;10.60;95.30
62259;DHT22;48241;48.824;10.102;2023-02-24T16:27:15;10.60;95.30
62259;DHT22;48241;48.824;10.102;2023-02-24T16:29:41;10.60;95.10
62259;DHT22;48241;48.824;10.102;2023-02-24T16:32:12;10.70;94.50
62259;DHT22;48241;48.824;10.102;2023-02-24T16:34:37;10.80;94.90
62259;DHT22;48241;48.824;10.102;2023-02-24T16:37:04;10.40;95.80
62259;DHT22;48241;48.824;10.102;2023-02-24T16:39:35;10.50;95.60
62259;DHT22;48241;48.824;10.102;2023-02-24T16:42:01;10.50;95.40
62259;DHT22;48241;48.824;10.102;2023-02-24T16:44:30;10.70;95.50
62259;DHT22;48241;48.824;10.102;2023-02-24T16:46:56;10.70;95.60
62259;DHT22;48241;48.824;10.102;2023-02-24T16:49:22;10.80;95.50
62259;DHT22;48241;48.824;10.102;2023-02-24T16:51:48;10.60;95.50
62259;DHT22;48241;48.824;10.102;2023-02-24T16:54:14;10.60;95.50
62259;DHT22;48241;48.824;10.102;2023-02-24T16:56:39;10.50;95.80
62259;DHT22;48241;48.824;10.102;2023-02-24T16:59:05;10.40;96.10
62259;DHT22;48241;48.824;10.102;2023-02-24T17:01:31;10.40;96.00
62259;DHT22;48241;48.824;10.102;2023-02-24T17:03:56;10.30;96.40
62259;DHT22;48241;48.824;10.102;2023-02-24T17:06:22;10.30;96.70
62259;DHT22;48241;48.824;10.102;2023-02-24T17:08:49;10.20;96.60
62259;DHT22;48241;48.824;10.102;2023-02-24T17:11:17;10.30;96.80
62259;DHT22;48241;48.824;10.102;2023-02-24T17:13:43;10.20;96.70
62259;DHT22;48241;48.824;10.102;2023-02-24T17:19:11;10.30;96.80